createdAt,value
2018-07-01T00:00:19.993Z,19.70
2018-07-01T00:02:48.437Z,19.70
2018-07-01T00:05:16.838Z,19.70
2018-07-01T00:07:45.213Z,19.70
2018-07-01T00:10:13.589Z,19.70
2018-07-01T00:12:41.994Z,19.70
2018-07-01T00:15:10.500Z,19.70
2018-07-01T00:17:38.878Z,19.70
2018-07-01T00:20:08.814Z,19.70
2018-07-01T00:22:37.770Z,19.70
2018-07-01T00:25:06.448Z,19.70
2018-07-01T00:27:34.877Z,19.70
2018-07-01T00:30:03.271Z,19.70
2018-07-01T00:32:31.617Z,19.60
2018-07-01T00:34:59.983Z,19.60
2018-07-01T00:37:28.424Z,19.60
2018-07-01T00:39:56.762Z,19.60
2018-07-01T00:42:25.135Z,19.60
2018-07-01T00:44:53.549Z,19.60
2018-07-01T00:47:21.981Z,19.60
2018-07-01T00:49:50.313Z,19.50
2018-07-01T00:52:18.722Z,19.50
2018-07-01T00:54:47.154Z,19.50
2018-07-01T00:57:15.486Z,19.50
2018-07-01T00:59:43.859Z,19.50
2018-07-01T01:02:12.218Z,19.50
2018-07-01T01:04:40.658Z,19.40
2018-07-01T01:07:08.977Z,19.40
2018-07-01T01:09:37.425Z,19.40
2018-07-01T01:12:05.826Z,19.30
2018-07-01T01:14:34.258Z,19.30
2018-07-01T01:17:02.831Z,19.20
2018-07-01T01:19:31.315Z,19.20
2018-07-01T01:21:59.847Z,19.20
2018-07-01T01:24:28.363Z,19.10
2018-07-01T01:26:56.778Z,19.10
2018-07-01T01:29:25.202Z,19.10
2018-07-01T01:31:53.625Z,19.10
2018-07-01T01:34:22.124Z,19.10
2018-07-01T01:36:50.556Z,19.00
2018-07-01T01:39:22.745Z,19.00
2018-07-01T01:41:55.131Z,18.90
2018-07-01T01:44:30.386Z,18.80
2018-07-01T01:47:04.081Z,18.80
2018-07-01T01:50:08.739Z,18.70
2018-07-01T01:52:42.421Z,18.60
2018-07-01T01:55:30.312Z,18.50
2018-07-01T01:58:09.014Z,18.40
2018-07-01T02:00:45.523Z,18.40
2018-07-01T02:03:35.013Z,18.30
2018-07-01T02:06:09.357Z,18.30
2018-07-01T02:08:40.886Z,18.30
2018-07-01T02:11:09.295Z,18.30
2018-07-01T02:13:39.918Z,18.30
2018-07-01T02:16:12.214Z,18.30
2018-07-01T02:21:08.706Z,18.30
2018-07-01T02:23:41.853Z,18.30
2018-07-01T02:26:10.235Z,18.20
2018-07-01T02:28:38.618Z,18.20
2018-07-01T02:31:07.281Z,18.20
2018-07-01T02:33:35.721Z,18.10
2018-07-01T02:36:04.157Z,18.10
2018-07-01T02:38:32.483Z,18.10
2018-07-01T02:41:00.943Z,18.10
2018-07-01T02:43:29.312Z,18.10
2018-07-01T02:45:57.793Z,18.10
2018-07-01T02:48:26.170Z,18.00
2018-07-01T02:50:54.527Z,17.90
2018-07-01T02:53:22.872Z,17.90
2018-07-01T02:55:51.210Z,17.80
2018-07-01T02:58:19.558Z,17.70
2018-07-01T03:00:47.942Z,17.70
2018-07-01T03:03:16.390Z,17.60
2018-07-01T03:05:44.785Z,17.60
2018-07-01T03:08:13.143Z,17.50
2018-07-01T03:10:41.487Z,17.50
2018-07-01T03:13:09.849Z,17.50
2018-07-01T03:15:38.208Z,17.50
2018-07-01T03:18:06.594Z,17.40
2018-07-01T03:20:34.967Z,17.40
2018-07-01T03:23:03.312Z,17.40
2018-07-01T03:25:31.737Z,17.40
2018-07-01T03:28:00.097Z,17.40
2018-07-01T03:30:28.629Z,17.40
2018-07-01T03:32:56.968Z,17.50
2018-07-01T03:35:25.378Z,17.40
2018-07-01T03:37:53.726Z,17.50
2018-07-01T03:40:22.097Z,17.40
2018-07-01T03:42:50.430Z,17.40
2018-07-01T03:45:18.767Z,17.40
2018-07-01T03:47:47.133Z,17.40
2018-07-01T03:50:15.558Z,17.30
2018-07-01T03:52:44.295Z,17.30
2018-07-01T03:55:12.681Z,17.30
2018-07-01T03:57:41.077Z,17.30
2018-07-01T04:00:09.434Z,17.40
2018-07-01T04:02:37.778Z,17.30
2018-07-01T04:05:06.271Z,17.30
2018-07-01T04:07:34.818Z,17.40
2018-07-01T04:10:03.194Z,17.40
2018-07-01T04:12:31.550Z,17.50
2018-07-01T04:14:59.916Z,17.50
2018-07-01T04:17:28.311Z,17.50
2018-07-01T04:19:56.690Z,17.60
2018-07-01T04:22:25.055Z,17.50
2018-07-01T04:24:53.401Z,17.60
2018-07-01T04:29:49.873Z,17.60
2018-07-01T04:32:18.233Z,17.60
2018-07-01T04:34:46.575Z,17.70
2018-07-01T04:37:14.948Z,17.70
2018-07-01T04:39:43.270Z,17.80
2018-07-01T04:42:11.610Z,17.80
2018-07-01T04:44:39.958Z,17.80
2018-07-01T04:47:08.309Z,17.90
2018-07-01T04:49:36.769Z,17.90
2018-07-01T04:52:05.130Z,18.00
2018-07-01T04:54:33.462Z,18.10
2018-07-01T04:57:01.896Z,18.20
2018-07-01T04:59:30.226Z,18.30
2018-07-01T05:19:18.685Z,19.10
2018-07-01T05:21:47.023Z,19.20
2018-07-01T05:24:15.394Z,19.40
2018-07-01T05:26:43.734Z,19.40
2018-07-01T05:29:12.111Z,19.50
2018-07-01T05:31:40.461Z,19.60
2018-07-01T05:34:08.844Z,19.60
2018-07-01T05:36:37.194Z,19.70
2018-07-01T05:39:08.715Z,19.80
2018-07-01T05:41:37.057Z,19.90
2018-07-01T05:44:05.431Z,20.00
2018-07-01T05:46:33.753Z,20.10
2018-07-01T05:49:02.097Z,20.20
2018-07-01T05:51:30.751Z,20.30
2018-07-01T05:53:59.341Z,20.40
2018-07-01T05:56:27.805Z,20.50
2018-07-01T05:58:56.174Z,20.50
2018-07-01T06:01:24.516Z,20.60
2018-07-01T06:03:52.885Z,20.70
2018-07-01T06:06:21.277Z,20.80
2018-07-01T06:08:49.811Z,20.90
2018-07-01T06:11:18.283Z,21.00
2018-07-01T06:13:46.631Z,21.10
2018-07-01T06:16:15.008Z,21.10
2018-07-01T06:18:43.425Z,21.20
2018-07-01T06:21:11.742Z,21.30
2018-07-01T06:23:40.094Z,21.40
2018-07-01T06:26:08.458Z,21.40
2018-07-01T06:28:37.153Z,21.50
2018-07-01T06:31:06.018Z,21.60
2018-07-01T06:33:34.392Z,21.70
2018-07-01T06:36:02.766Z,21.80
2018-07-01T06:38:31.254Z,21.90
2018-07-01T06:40:59.630Z,22.00
2018-07-01T06:43:28.001Z,22.10
2018-07-01T06:45:56.393Z,22.10
2018-07-01T06:48:24.987Z,22.10
2018-07-01T06:50:53.318Z,22.20
2018-07-01T06:53:21.866Z,22.20
2018-07-01T06:55:50.197Z,22.30
2018-07-01T06:58:18.554Z,22.40
2018-07-01T07:00:46.952Z,22.40
2018-07-01T07:03:15.302Z,22.40
2018-07-01T07:05:43.970Z,22.50
2018-07-01T07:08:12.482Z,22.60
2018-07-01T07:10:40.862Z,22.60
2018-07-01T07:13:09.278Z,22.70
2018-07-01T07:15:37.718Z,22.80
2018-07-01T07:18:06.360Z,22.80
2018-07-01T07:20:34.771Z,22.90
2018-07-01T07:23:03.151Z,22.90
2018-07-01T07:25:32.113Z,23.00
2018-07-01T07:28:00.556Z,23.00
2018-07-01T07:30:29.017Z,23.00
2018-07-01T07:32:57.423Z,23.10
2018-07-01T07:35:26.093Z,23.20
2018-07-01T07:37:54.583Z,23.30
2018-07-01T07:40:22.971Z,23.30
2018-07-01T07:42:51.808Z,23.40
2018-07-01T07:45:20.320Z,23.50
2018-07-01T07:47:48.718Z,23.50
2018-07-01T07:50:17.189Z,23.50
2018-07-01T07:52:45.559Z,23.60
2018-07-01T07:55:13.938Z,23.60
2018-07-01T07:57:42.397Z,23.60
2018-07-01T08:00:10.818Z,23.70
2018-07-01T08:02:39.254Z,23.70
2018-07-01T08:05:07.755Z,23.90
2018-07-01T08:07:36.120Z,23.90
2018-07-01T08:10:04.885Z,23.90
2018-07-01T08:12:33.282Z,24.00
2018-07-01T08:15:01.749Z,24.00
2018-07-01T08:17:30.134Z,23.90
2018-07-01T08:19:58.531Z,24.00
2018-07-01T08:22:26.941Z,24.00
2018-07-01T08:24:55.330Z,24.00
2018-07-01T08:27:23.738Z,24.10
2018-07-01T08:29:52.144Z,24.10
2018-07-01T08:32:20.505Z,24.20
2018-07-01T08:34:48.914Z,24.30
2018-07-01T08:37:17.314Z,24.30
2018-07-01T08:39:45.790Z,24.30
2018-07-01T08:42:36.957Z,24.40
2018-07-01T08:45:07.541Z,24.50
2018-07-01T08:47:36.328Z,24.50
2018-07-01T08:50:06.175Z,24.50
2018-07-01T08:52:34.667Z,24.60
2018-07-01T08:55:03.153Z,24.70
2018-07-01T08:57:31.673Z,24.70
2018-07-01T09:00:00.110Z,24.70
2018-07-01T09:02:28.465Z,24.80
2018-07-01T09:04:56.818Z,24.80
2018-07-01T09:07:25.239Z,24.90
2018-07-01T09:09:53.597Z,24.90
2018-07-01T09:12:21.963Z,24.90
2018-07-01T09:14:50.300Z,24.90
2018-07-01T09:17:18.892Z,24.90
2018-07-01T09:19:47.202Z,25.00
2018-07-01T09:22:15.581Z,25.00
2018-07-01T09:24:43.922Z,25.00
2018-07-01T09:27:12.278Z,25.10
2018-07-01T09:32:14.420Z,25.30
2018-07-01T09:34:42.925Z,25.30
2018-07-01T09:37:11.298Z,25.40
2018-07-01T09:39:39.693Z,25.50
2018-07-01T09:42:08.090Z,25.60
2018-07-01T09:44:36.458Z,25.70
2018-07-01T09:47:04.822Z,25.80
2018-07-01T09:49:33.146Z,25.90
2018-07-01T09:52:01.553Z,26.00
2018-07-01T09:54:29.898Z,26.10
2018-07-01T09:56:58.400Z,26.20
2018-07-01T09:59:26.743Z,26.30
2018-07-01T10:01:55.134Z,26.40
2018-07-01T10:04:23.490Z,26.50
2018-07-01T10:06:51.895Z,26.80
2018-07-01T10:09:20.314Z,27.10
2018-07-01T10:11:48.800Z,27.20
2018-07-01T10:14:17.201Z,27.40
2018-07-01T10:16:45.647Z,27.40
2018-07-01T10:19:14.111Z,27.60
2018-07-01T10:21:42.551Z,27.60
2018-07-01T10:24:11.002Z,27.90
2018-07-01T10:26:39.693Z,28.20
2018-07-01T10:29:11.140Z,28.40
2018-07-01T10:31:40.195Z,28.70
2018-07-01T10:34:09.686Z,28.90
2018-07-01T10:36:38.157Z,29.20
2018-07-01T10:39:10.392Z,29.40
2018-07-01T10:41:41.659Z,29.50
2018-07-01T10:44:10.075Z,29.80
2018-07-01T10:46:38.563Z,29.90
2018-07-01T10:49:07.142Z,30.10
2018-07-01T10:51:37.881Z,30.20
2018-07-01T10:54:13.411Z,30.40
2018-07-01T10:56:41.805Z,30.70
2018-07-01T10:59:10.228Z,30.80
2018-07-01T11:01:38.773Z,31.00
2018-07-01T11:04:07.173Z,31.10
2018-07-01T11:06:35.602Z,31.30
2018-07-01T11:09:06.347Z,31.30
2018-07-01T11:11:34.786Z,31.30
2018-07-01T11:14:03.179Z,31.50
2018-07-01T11:16:31.573Z,31.90
2018-07-01T11:19:00.273Z,32.30
2018-07-01T11:21:33.247Z,32.50
2018-07-01T11:24:01.911Z,32.70
2018-07-01T11:26:30.438Z,33.00
2018-07-01T11:28:58.947Z,33.00
2018-07-01T11:31:27.441Z,33.30
2018-07-01T11:33:57.818Z,33.30
2018-07-01T11:36:26.578Z,33.30
2018-07-01T11:38:55.451Z,33.60
2018-07-01T11:41:24.213Z,33.90
2018-07-01T11:43:52.578Z,33.90
2018-07-01T11:46:20.980Z,33.90
2018-07-01T11:48:49.526Z,34.10
2018-07-01T11:51:17.881Z,34.30
2018-07-01T11:53:46.345Z,34.10
2018-07-01T11:56:14.767Z,34.20
2018-07-01T11:58:43.150Z,34.50
2018-07-01T12:01:11.562Z,34.60
2018-07-01T12:03:39.949Z,34.80
2018-07-01T12:06:08.290Z,35.10
2018-07-01T12:08:36.707Z,35.40
2018-07-01T12:11:05.139Z,35.70
2018-07-01T12:13:33.556Z,35.90
2018-07-01T12:16:02.013Z,36.00
2018-07-01T12:18:30.446Z,36.20
2018-07-01T12:20:58.823Z,36.50
2018-07-01T12:23:27.317Z,36.50
2018-07-01T12:25:55.594Z,36.60
2018-07-01T12:28:24.023Z,36.50
2018-07-01T12:30:52.394Z,36.80
2018-07-01T12:33:20.761Z,36.70
2018-07-01T12:35:49.143Z,37.20
2018-07-01T12:38:17.486Z,37.10
2018-07-01T12:40:45.847Z,37.30
2018-07-01T12:43:14.238Z,37.20
2018-07-01T12:45:42.694Z,37.40
2018-07-01T12:48:13.658Z,37.80
2018-07-01T12:50:42.092Z,38.20
2018-07-01T12:53:10.486Z,38.50
2018-07-01T12:55:38.979Z,38.90
2018-07-01T12:58:07.335Z,39.10
2018-07-01T13:00:35.722Z,39.30
2018-07-01T13:03:04.103Z,39.60
2018-07-01T13:05:32.463Z,40.00
2018-07-01T13:08:00.815Z,40.40
2018-07-01T13:10:29.305Z,40.80
2018-07-01T13:12:57.679Z,40.80
2018-07-01T13:15:32.597Z,41.00
2018-07-01T13:18:01.011Z,41.10
2018-07-01T13:20:29.452Z,40.80
2018-07-01T13:22:57.832Z,40.80
2018-07-01T13:25:26.299Z,40.90
2018-07-01T13:27:54.765Z,41.20
2018-07-01T13:30:23.286Z,41.60
2018-07-01T13:32:51.771Z,41.80
2018-07-01T13:35:20.839Z,41.80
2018-07-01T13:37:49.289Z,42.20
2018-07-01T13:40:17.691Z,42.20
2018-07-01T13:42:46.120Z,42.10
2018-07-01T13:45:14.586Z,42.00
2018-07-01T13:47:42.975Z,41.60
2018-07-01T13:50:11.398Z,41.70
2018-07-01T13:52:39.802Z,42.00
2018-07-01T13:55:08.200Z,42.40
2018-07-01T13:57:36.608Z,42.60
2018-07-01T14:00:06.263Z,42.50
2018-07-01T14:02:34.761Z,42.90
2018-07-01T14:05:03.319Z,43.10
2018-07-01T14:07:31.753Z,43.50
2018-07-01T14:10:00.146Z,43.60
2018-07-01T14:12:28.566Z,43.60
2018-07-01T14:14:57.034Z,43.70
2018-07-01T14:17:25.444Z,44.00
2018-07-01T14:19:53.839Z,43.80
2018-07-01T14:22:22.153Z,43.80
2018-07-01T14:24:50.556Z,44.20
2018-07-01T14:27:19.022Z,43.90
2018-07-01T14:29:47.485Z,44.00
2018-07-01T14:32:15.848Z,44.30
2018-07-01T14:34:44.195Z,45.00
2018-07-01T14:37:12.634Z,44.80
2018-07-01T14:39:41.018Z,44.60
2018-07-01T14:42:09.351Z,44.50
2018-07-01T14:44:37.694Z,44.00
2018-07-01T14:47:06.382Z,44.30
2018-07-01T14:49:34.820Z,44.10
2018-07-01T14:52:03.290Z,44.50
2018-07-01T14:54:31.631Z,44.80
2018-07-01T14:57:00.032Z,44.90
2018-07-01T14:59:28.390Z,44.70
2018-07-01T15:01:56.894Z,44.80
2018-07-01T15:04:25.285Z,45.10
2018-07-01T15:06:53.937Z,45.30
2018-07-01T15:09:23.203Z,45.10
2018-07-01T15:11:52.515Z,45.30
2018-07-01T15:14:22.309Z,45.50
2018-07-01T15:16:51.436Z,46.00
2018-07-01T15:19:20.652Z,45.20
2018-07-01T15:21:49.927Z,45.00
2018-07-01T15:24:18.465Z,45.20
2018-07-01T15:26:46.873Z,45.10
2018-07-01T15:29:15.303Z,45.10
2018-07-01T15:31:43.686Z,45.30
2018-07-01T15:34:12.138Z,45.20
2018-07-01T15:36:40.627Z,45.70
2018-07-01T15:39:10.358Z,46.00
2018-07-01T15:41:38.844Z,46.30
2018-07-01T15:44:07.467Z,46.30
2018-07-01T15:46:36.383Z,46.30
2018-07-01T15:49:04.916Z,46.20
2018-07-01T15:51:33.596Z,46.50
2018-07-01T15:54:02.249Z,46.40
2018-07-01T15:56:30.772Z,46.40
2018-07-01T15:58:59.183Z,46.50
2018-07-01T16:01:27.600Z,46.80
2018-07-01T16:03:56.147Z,46.30
2018-07-01T16:06:24.873Z,46.40
2018-07-01T16:08:53.374Z,46.30
2018-07-01T16:11:21.858Z,46.50
2018-07-01T16:13:50.300Z,46.30
2018-07-01T16:16:18.972Z,46.30
2018-07-01T16:18:47.785Z,46.20
2018-07-01T16:21:16.497Z,46.60
2018-07-01T16:23:45.303Z,46.30
2018-07-01T16:26:18.951Z,45.90
2018-07-01T16:28:53.037Z,45.80
2018-07-01T16:31:21.494Z,45.90
2018-07-01T16:33:49.888Z,45.90
2018-07-01T16:36:18.306Z,46.10
2018-07-01T16:38:46.709Z,45.90
2018-07-01T16:41:15.133Z,45.80
2018-07-01T16:43:43.591Z,45.50
2018-07-01T16:46:11.987Z,45.30
2018-07-01T16:48:40.433Z,45.20
2018-07-01T16:51:08.982Z,45.10
2018-07-01T16:53:37.498Z,44.90
2018-07-01T16:56:06.030Z,44.70
2018-07-01T16:58:34.445Z,44.30
2018-07-01T17:01:03.023Z,43.60
2018-07-01T17:03:31.465Z,43.50
2018-07-01T17:05:59.923Z,43.70
2018-07-01T17:08:28.454Z,43.90
2018-07-01T17:10:57.049Z,44.00
2018-07-01T17:13:25.681Z,44.00
2018-07-01T17:15:54.124Z,44.00
2018-07-01T17:18:22.606Z,43.90
2018-07-01T17:20:50.942Z,44.00
2018-07-01T17:23:19.357Z,43.70
2018-07-01T17:25:53.637Z,43.30
2018-07-01T17:28:23.747Z,43.00
2018-07-01T17:30:57.133Z,42.90
2018-07-01T17:33:26.247Z,42.90
2018-07-01T17:35:55.250Z,42.90
2018-07-01T17:38:24.139Z,42.90
2018-07-01T17:40:52.502Z,43.00
2018-07-01T17:43:20.984Z,43.10
2018-07-01T17:45:49.701Z,42.90
2018-07-01T17:48:18.073Z,42.50
2018-07-01T17:50:46.551Z,42.30
2018-07-01T17:53:26.345Z,41.90
2018-07-01T17:55:54.623Z,41.70
2018-07-01T17:58:23.005Z,41.40
2018-07-01T18:00:51.401Z,41.10
2018-07-01T18:03:19.771Z,41.00
2018-07-01T18:05:48.295Z,40.60
2018-07-01T18:08:16.797Z,40.50
2018-07-01T18:10:45.265Z,40.30
2018-07-01T18:13:13.778Z,39.80
2018-07-01T18:15:42.185Z,39.50
2018-07-01T18:18:10.714Z,39.30
2018-07-01T18:20:39.061Z,38.90
2018-07-01T18:23:35.846Z,38.50
2018-07-01T18:25:36.125Z,38.20
2018-07-01T18:28:15.021Z,37.90
2018-07-01T18:30:33.202Z,37.50
2018-07-01T18:33:01.718Z,37.40
2018-07-01T18:35:30.565Z,37.10
2018-07-01T18:37:59.181Z,37.00
2018-07-01T18:40:28.046Z,36.90
2018-07-01T18:42:56.501Z,36.50
2018-07-01T18:45:25.061Z,36.40
2018-07-01T18:47:53.622Z,36.20
2018-07-01T18:50:22.103Z,36.00
2018-07-01T18:52:50.859Z,35.70
2018-07-01T18:55:19.562Z,35.40
2018-07-01T18:57:48.263Z,35.10
2018-07-01T19:00:18.454Z,34.70
2018-07-01T19:02:46.882Z,34.20
2018-07-01T19:05:15.302Z,33.70
2018-07-01T19:07:43.716Z,33.30
2018-07-01T19:10:12.339Z,32.70
2018-07-01T19:12:41.273Z,32.00
2018-07-01T19:15:09.952Z,31.20
2018-07-01T19:17:38.392Z,30.20
2018-07-01T19:20:06.989Z,29.20
2018-07-01T19:22:35.635Z,28.40
2018-07-01T19:25:04.197Z,27.70
2018-07-01T19:27:32.734Z,27.20
2018-07-01T19:30:01.462Z,26.70
2018-07-01T19:32:30.152Z,26.40
2018-07-01T19:34:58.590Z,26.10
2018-07-01T19:37:27.004Z,25.80
2018-07-01T19:39:55.480Z,25.60
2018-07-01T19:42:24.020Z,25.30
2018-07-01T19:44:52.451Z,25.10
2018-07-01T19:47:20.996Z,25.00
2018-07-01T19:49:49.540Z,24.80
2018-07-01T19:52:18.632Z,24.70
2018-07-01T19:54:47.430Z,24.60
2018-07-01T19:57:16.002Z,24.50
2018-07-01T19:59:44.448Z,24.40
2018-07-01T20:02:12.914Z,24.30
2018-07-01T20:04:41.382Z,24.20
2018-07-01T20:07:09.955Z,24.10
2018-07-01T20:09:38.602Z,24.00
2018-07-01T20:12:07.016Z,23.90
2018-07-01T20:14:35.438Z,23.80
2018-07-01T20:19:32.092Z,23.60
2018-07-01T20:22:00.758Z,23.50
2018-07-01T20:24:29.737Z,23.40
2018-07-01T20:26:59.723Z,23.40
2018-07-01T20:29:28.797Z,23.30
2018-07-01T20:31:57.370Z,23.30
2018-07-01T20:34:25.751Z,23.20
2018-07-01T20:36:54.252Z,23.10
2018-07-01T20:39:23.450Z,23.00
2018-07-01T20:41:52.801Z,23.00
2018-07-01T20:44:22.034Z,22.90
2018-07-01T20:46:51.293Z,22.90
2018-07-01T20:49:19.776Z,22.80
2018-07-01T20:51:48.203Z,22.70
2018-07-01T20:54:16.605Z,22.70
2018-07-01T20:56:45.006Z,22.60
2018-07-01T20:59:13.364Z,22.50
2018-07-01T21:01:41.822Z,22.40
2018-07-01T21:04:10.231Z,22.30
2018-07-01T21:09:08.728Z,22.10
2018-07-01T21:11:37.430Z,22.00
2018-07-01T21:14:05.974Z,22.00
2018-07-01T21:16:34.448Z,21.90
2018-07-01T21:19:03.051Z,21.80
2018-07-01T21:21:31.460Z,21.80
2018-07-01T21:23:59.939Z,21.80
2018-07-01T21:26:29.380Z,21.80
2018-07-01T21:28:58.516Z,21.70
2018-07-01T21:31:26.931Z,21.70
2018-07-01T21:33:55.339Z,21.60
2018-07-01T21:36:23.910Z,21.60
2018-07-01T21:38:52.349Z,21.50
2018-07-01T21:41:20.729Z,21.50
2018-07-01T21:43:49.250Z,21.40
2018-07-01T21:46:17.878Z,21.40
2018-07-01T21:48:47.234Z,21.30
2018-07-01T21:51:15.736Z,21.20
2018-07-01T21:53:44.170Z,21.20
2018-07-01T21:56:12.626Z,21.10
2018-07-01T21:58:41.073Z,21.10
2018-07-01T22:01:10.227Z,21.00
2018-07-01T22:03:38.662Z,21.00
2018-07-01T22:06:08.390Z,20.90
2018-07-01T22:08:37.792Z,20.90
2018-07-01T22:11:52.653Z,20.80
2018-07-01T22:14:39.169Z,20.80
2018-07-01T22:17:09.327Z,20.70
2018-07-01T22:19:38.249Z,20.70
2018-07-01T22:22:06.791Z,20.60
2018-07-01T22:24:36.334Z,20.60
2018-07-01T22:27:05.139Z,20.60
2018-07-01T22:29:33.768Z,20.50
2018-07-01T22:32:02.232Z,20.50
2018-07-01T22:34:30.683Z,20.40
2018-07-01T22:36:59.122Z,20.40
2018-07-01T22:39:28.653Z,20.40
2018-07-01T22:44:32.084Z,20.30
2018-07-01T22:47:00.566Z,20.30
2018-07-01T22:49:28.994Z,20.30
2018-07-01T22:51:57.458Z,20.20
2018-07-01T22:54:25.878Z,20.20
2018-07-01T22:56:54.306Z,20.10
2018-07-01T22:59:22.757Z,20.10
2018-07-01T23:03:04.680Z,20.10
2018-07-01T23:05:33.106Z,20.10
2018-07-01T23:08:01.591Z,20.10
2018-07-01T23:10:30.857Z,20.00
2018-07-01T23:12:59.788Z,20.00
2018-07-01T23:15:28.256Z,19.90
2018-07-01T23:17:56.704Z,19.80
2018-07-01T23:20:25.116Z,19.80
2018-07-01T23:22:53.593Z,19.70
2018-07-01T23:25:22.120Z,19.70
2018-07-01T23:27:50.559Z,19.70
2018-07-01T23:30:19.045Z,19.60
2018-07-01T23:32:47.527Z,19.60
2018-07-01T23:35:15.989Z,19.50
2018-07-01T23:37:44.491Z,19.50
2018-07-01T23:40:13.084Z,19.50
2018-07-01T23:42:42.103Z,19.50
2018-07-01T23:46:14.282Z,19.60
2018-07-01T23:48:42.757Z,19.60
2018-07-01T23:51:11.180Z,19.70
2018-07-01T23:53:39.611Z,19.80
2018-07-01T23:56:08.096Z,19.80
2018-07-01T23:58:36.540Z,19.90
